sensor_id;sensor_type;location;lat;lon;timestamp;pressure;altitude;pressure_sealevel;temperature;humidity
706;BME280;21234;48.690;9.016;2023-08-24T00:01:12;96382.97;;;19.67;86.17
706;BME280;21234;48.690;9.016;2023-08-24T00:03:39;96386.63;;;19.62;84.83
706;BME280;21234;48.690;9.016;2023-08-24T00:06:06;96382.63;;;19.55;85.31
706;BME280;21234;48.690;9.016;2023-08-24T00:08:33;96382.19;;;19.48;86.86
706;BME280;21234;48.690;9.016;2023-08-24T00:11:00;96377.69;;;19.38;88.59
706;BME280;21234;48.690;9.016;2023-08-24T00:13:26;96381.44;;;19.28;88.71
706;BME280;21234;48.690;9.016;2023-08-24T00:15:55;96378.81;;;19.37;87.94
706;BME280;21234;48.690;9.016;2023-08-24T00:18:22;96377.97;;;19.36;88.30
706;BME280;21234;48.690;9.016;2023-08-24T00:20:48;96368.16;;;19.30;88.80
706;BME280;21234;48.690;9.016;2023-08-24T00:23:16;96375.78;;;19.20;88.62
706;BME280;21234;48.690;9.016;2023-08-24T00:25:43;96371.22;;;19.29;88.42
706;BME280;21234;48.690;9.016;2023-08-24T00:28:10;96366.75;;;19.33;88.22
706;BME280;21234;48.690;9.016;2023-08-24T00:30:37;96375.00;;;19.33;88.98
706;BME280;21234;48.690;9.016;2023-08-24T00:33:08;96367.88;;;19.32;88.71
706;BME280;21234;48.690;9.016;2023-08-24T00:35:34;96360.13;;;19.34;88.40
706;BME280;21234;48.690;9.016;2023-08-24T00:38:01;96351.41;;;19.27;89.75
706;BME280;21234;48.690;9.016;2023-08-24T00:40:28;96352.53;;;19.26;89.45
706;BME280;21234;48.690;9.016;2023-08-24T00:42:54;96339.88;;;19.25;89.01
706;BME280;21234;48.690;9.016;2023-08-24T00:45:21;96345.09;;;19.26;89.26
706;BME280;21234;48.690;9.016;2023-08-24T00:47:48;96332.44;;;19.25;88.97
706;BME280;21234;48.690;9.016;2023-08-24T00:50:17;96337.03;;;19.30;87.81
706;BME280;21234;48.690;9.016;2023-08-24T00:52:44;96329.69;;;19.39;88.00
706;BME280;21234;48.690;9.016;2023-08-24T00:55:12;96330.53;;;19.39;87.73
706;BME280;21234;48.690;9.016;2023-08-24T00:57:40;96321.09;;;19.27;91.43
706;BME280;21234;48.690;9.016;2023-08-24T01:00:07;96325.19;;;19.29;89.89
706;BME280;21234;48.690;9.016;2023-08-24T01:02:35;96328.38;;;19.36;87.37
706;BME280;21234;48.690;9.016;2023-08-24T01:05:02;96327.75;;;19.39;87.04
706;BME280;21234;48.690;9.016;2023-08-24T01:07:32;96332.94;;;19.27;85.69
706;BME280;21234;48.690;9.016;2023-08-24T01:10:00;96327.53;;;19.22;87.59
706;BME280;21234;48.690;9.016;2023-08-24T01:12:32;96331.81;;;19.28;89.62
706;BME280;21234;48.690;9.016;2023-08-24T01:15:07;96329.75;;;19.20;88.63
706;BME280;21234;48.690;9.016;2023-08-24T01:17:36;96331.41;;;19.21;87.76
706;BME280;21234;48.690;9.016;2023-08-24T01:20:06;96323.72;;;19.18;88.29
706;BME280;21234;48.690;9.016;2023-08-24T01:22:43;96320.88;;;19.23;85.85
706;BME280;21234;48.690;9.016;2023-08-24T01:25:12;96325.78;;;19.26;86.59
706;BME280;21234;48.690;9.016;2023-08-24T01:27:43;96321.09;;;19.27;87.81
706;BME280;21234;48.690;9.016;2023-08-24T01:30:11;96316.28;;;19.19;88.91
706;BME280;21234;48.690;9.016;2023-08-24T01:32:37;96314.97;;;19.16;88.47
706;BME280;21234;48.690;9.016;2023-08-24T01:35:06;96309.88;;;19.09;90.17
706;BME280;21234;48.690;9.016;2023-08-24T01:37:35;96314.50;;;18.95;90.87
706;BME280;21234;48.690;9.016;2023-08-24T01:40:05;96315.03;;;18.97;90.53
706;BME280;21234;48.690;9.016;2023-08-24T01:42:35;96308.78;;;18.92;90.26
706;BME280;21234;48.690;9.016;2023-08-24T01:45:06;96314.06;;;18.74;93.41
706;BME280;21234;48.690;9.016;2023-08-24T01:47:34;96316.97;;;18.64;94.09
706;BME280;21234;48.690;9.016;2023-08-24T01:50:02;96311.16;;;18.66;92.93
706;BME280;21234;48.690;9.016;2023-08-24T01:52:30;96303.34;;;18.73;93.41
706;BME280;21234;48.690;9.016;2023-08-24T01:54:57;96301.56;;;18.63;94.38
706;BME280;21234;48.690;9.016;2023-08-24T01:57:25;96304.38;;;18.58;92.97
706;BME280;21234;48.690;9.016;2023-08-24T01:59:51;96303.63;;;18.53;92.29
706;BME280;21234;48.690;9.016;2023-08-24T02:02:20;96302.50;;;18.54;93.23
706;BME280;21234;48.690;9.016;2023-08-24T02:04:47;96300.25;;;18.42;94.98
706;BME280;21234;48.690;9.016;2023-08-24T02:07:14;96298.31;;;18.42;94.67
706;BME280;21234;48.690;9.016;2023-08-24T02:09:40;96301.19;;;18.51;93.50
706;BME280;21234;48.690;9.016;2023-08-24T02:12:07;96307.91;;;18.45;94.00
706;BME280;21234;48.690;9.016;2023-08-24T02:14:34;96298.69;;;18.36;95.62
706;BME280;21234;48.690;9.016;2023-08-24T02:17:00;96304.25;;;18.31;94.17
706;BME280;21234;48.690;9.016;2023-08-24T02:19:28;96307.31;;;18.29;95.19
706;BME280;21234;48.690;9.016;2023-08-24T02:21:55;96306.19;;;18.30;93.48
706;BME280;21234;48.690;9.016;2023-08-24T02:24:22;96304.31;;;18.26;94.67
706;BME280;21234;48.690;9.016;2023-08-24T02:26:48;96307.91;;;18.26;92.10
706;BME280;21234;48.690;9.016;2023-08-24T02:29:15;96302.63;;;18.30;92.04
706;BME280;21234;48.690;9.016;2023-08-24T02:31:42;96303.50;;;18.25;94.44
706;BME280;21234;48.690;9.016;2023-08-24T02:34:08;96302.34;;;18.12;96.17
706;BME280;21234;48.690;9.016;2023-08-24T02:36:36;96292.00;;;18.04;96.81
706;BME280;21234;48.690;9.016;2023-08-24T02:39:04;96300.47;;;18.08;96.74
706;BME280;21234;48.690;9.016;2023-08-24T02:41:30;96304.88;;;18.09;97.22
706;BME280;21234;48.690;9.016;2023-08-24T02:43:57;96301.00;;;18.10;96.76
706;BME280;21234;48.690;9.016;2023-08-24T02:46:24;96292.22;;;18.08;97.00
706;BME280;21234;48.690;9.016;2023-08-24T02:48:50;96294.31;;;18.16;93.72
706;BME280;21234;48.690;9.016;2023-08-24T02:51:17;96295.31;;;18.20;92.12
706;BME280;21234;48.690;9.016;2023-08-24T02:53:45;96291.25;;;18.18;94.76
706;BME280;21234;48.690;9.016;2023-08-24T02:56:12;96279.75;;;18.16;95.46
706;BME280;21234;48.690;9.016;2023-08-24T02:58:38;96280.69;;;18.25;94.67
706;BME280;21234;48.690;9.016;2023-08-24T03:01:05;96294.91;;;18.13;92.60
706;BME280;21234;48.690;9.016;2023-08-24T03:03:32;96306.03;;;18.03;93.02
706;BME280;21234;48.690;9.016;2023-08-24T03:06:00;96304.28;;;18.12;95.23
706;BME280;21234;48.690;9.016;2023-08-24T03:08:27;96292.09;;;18.18;93.61
706;BME280;21234;48.690;9.016;2023-08-24T03:10:56;96290.97;;;18.19;93.12
706;BME280;21234;48.690;9.016;2023-08-24T03:13:22;96281.19;;;18.27;92.25
706;BME280;21234;48.690;9.016;2023-08-24T03:15:49;96269.59;;;18.30;92.81
706;BME280;21234;48.690;9.016;2023-08-24T03:18:17;96263.78;;;18.31;92.41
706;BME280;21234;48.690;9.016;2023-08-24T03:20:45;96270.34;;;18.35;92.22
706;BME280;21234;48.690;9.016;2023-08-24T03:23:12;96260.06;;;18.41;91.26
706;BME280;21234;48.690;9.016;2023-08-24T03:25:40;96267.81;;;18.39;93.41
706;BME280;21234;48.690;9.016;2023-08-24T03:28:09;96264.16;;;18.43;93.46
706;BME280;21234;48.690;9.016;2023-08-24T03:30:37;96265.13;;;18.34;93.30
706;BME280;21234;48.690;9.016;2023-08-24T03:33:04;96260.44;;;18.34;93.76
706;BME280;21234;48.690;9.016;2023-08-24T03:35:32;96258.00;;;18.33;94.00
706;BME280;21234;48.690;9.016;2023-08-24T03:37:59;96253.59;;;18.32;95.84
706;BME280;21234;48.690;9.016;2023-08-24T03:40:25;96254.19;;;18.29;94.10
706;BME280;21234;48.690;9.016;2023-08-24T03:42:52;96249.22;;;18.31;95.94
706;BME280;21234;48.690;9.016;2023-08-24T03:45:20;96245.44;;;18.27;97.58
706;BME280;21234;48.690;9.016;2023-08-24T03:47:47;96243.78;;;18.26;97.38
706;BME280;21234;48.690;9.016;2023-08-24T03:50:14;96234.63;;;18.30;94.60
706;BME280;21234;48.690;9.016;2023-08-24T03:52:41;96229.66;;;18.32;94.42
706;BME280;21234;48.690;9.016;2023-08-24T03:55:08;96236.88;;;18.28;95.65
706;BME280;21234;48.690;9.016;2023-08-24T03:57:35;96237.88;;;18.19;97.58
706;BME280;21234;48.690;9.016;2023-08-24T04:00:03;96234.81;;;18.20;97.07
706;BME280;21234;48.690;9.016;2023-08-24T04:02:32;96232.03;;;18.20;95.98
706;BME280;21234;48.690;9.016;2023-08-24T04:04:59;96216.50;;;18.29;95.65
706;BME280;21234;48.690;9.016;2023-08-24T04:07:25;96216.63;;;18.38;94.79
706;BME280;21234;48.690;9.016;2023-08-24T04:09:52;96215.75;;;18.42;93.54
706;BME280;21234;48.690;9.016;2023-08-24T04:12:19;96224.28;;;18.41;95.33
706;BME280;21234;48.690;9.016;2023-08-24T04:14:45;96213.19;;;18.46;95.69
706;BME280;21234;48.690;9.016;2023-08-24T04:17:12;96223.47;;;18.40;96.37
706;BME280;21234;48.690;9.016;2023-08-24T04:19:40;96214.41;;;18.40;96.58
706;BME280;21234;48.690;9.016;2023-08-24T04:22:07;96214.91;;;18.42;96.09
706;BME280;21234;48.690;9.016;2023-08-24T04:24:33;96211.13;;;18.38;96.41
706;BME280;21234;48.690;9.016;2023-08-24T04:27:00;96211.88;;;18.43;96.30
706;BME280;21234;48.690;9.016;2023-08-24T04:29:27;96213.72;;;18.48;96.04
706;BME280;21234;48.690;9.016;2023-08-24T04:31:53;96208.22;;;18.48;94.31
706;BME280;21234;48.690;9.016;2023-08-24T04:34:20;96195.97;;;18.54;94.64
706;BME280;21234;48.690;9.016;2023-08-24T04:36:48;96198.72;;;18.54;95.29
706;BME280;21234;48.690;9.016;2023-08-24T04:39:15;96199.97;;;18.48;92.25
706;BME280;21234;48.690;9.016;2023-08-24T04:41:42;96198.31;;;18.47;92.35
706;BME280;21234;48.690;9.016;2023-08-24T04:44:08;96199.44;;;18.46;92.37
706;BME280;21234;48.690;9.016;2023-08-24T04:46:35;96198.31;;;18.47;93.92
706;BME280;21234;48.690;9.016;2023-08-24T04:49:02;96205.97;;;18.50;95.99
706;BME280;21234;48.690;9.016;2023-08-24T04:51:29;96203.81;;;18.47;95.87
706;BME280;21234;48.690;9.016;2023-08-24T04:53:57;96198.31;;;18.47;95.95
706;BME280;21234;48.690;9.016;2023-08-24T04:56:24;96199.44;;;18.46;94.95
706;BME280;21234;48.690;9.016;2023-08-24T04:58:54;96199.34;;;18.51;95.78
706;BME280;21234;48.690;9.016;2023-08-24T05:01:22;96198.63;;;18.45;96.08
706;BME280;21234;48.690;9.016;2023-08-24T05:03:50;96201.47;;;18.54;95.78
706;BME280;21234;48.690;9.016;2023-08-24T05:06:16;96199.25;;;18.56;95.35
706;BME280;21234;48.690;9.016;2023-08-24T05:08:43;96208.00;;;18.58;95.54
706;BME280;21234;48.690;9.016;2023-08-24T05:11:11;96198.88;;;18.63;96.43
706;BME280;21234;48.690;9.016;2023-08-24T05:13:39;96199.22;;;18.75;95.78
706;BME280;21234;48.690;9.016;2023-08-24T05:16:05;96195.25;;;18.81;95.77
706;BME280;21234;48.690;9.016;2023-08-24T05:18:33;96196.06;;;18.82;95.65
706;BME280;21234;48.690;9.016;2023-08-24T05:21:00;96191.56;;;18.86;95.38
706;BME280;21234;48.690;9.016;2023-08-24T05:23:27;96188.19;;;18.89;94.47
706;BME280;21234;48.690;9.016;2023-08-24T05:25:53;96189.13;;;18.98;92.91
706;BME280;21234;48.690;9.016;2023-08-24T05:28:21;96187.50;;;19.10;94.22
706;BME280;21234;48.690;9.016;2023-08-24T05:30:48;96190.56;;;19.09;92.76
706;BME280;21234;48.690;9.016;2023-08-24T05:33:15;96179.03;;;19.07;91.23
706;BME280;21234;48.690;9.016;2023-08-24T05:35:42;96181.25;;;19.19;93.83
706;BME280;21234;48.690;9.016;2023-08-24T05:38:08;96171.78;;;19.25;93.99
706;BME280;21234;48.690;9.016;2023-08-24T05:40:35;96165.94;;;19.26;93.56
706;BME280;21234;48.690;9.016;2023-08-24T05:43:03;96166.66;;;19.32;91.18
706;BME280;21234;48.690;9.016;2023-08-24T05:45:31;96165.84;;;19.45;91.45
706;BME280;21234;48.690;9.016;2023-08-24T05:47:58;96165.63;;;19.55;89.97
706;BME280;21234;48.690;9.016;2023-08-24T05:50:26;96172.88;;;19.65;89.13
706;BME280;21234;48.690;9.016;2023-08-24T05:52:53;96165.50;;;19.74;86.77
706;BME280;21234;48.690;9.016;2023-08-24T05:55:20;96175.44;;;19.84;87.73
706;BME280;21234;48.690;9.016;2023-08-24T05:57:46;96174.84;;;19.87;86.81
706;BME280;21234;48.690;9.016;2023-08-24T06:00:14;96176.28;;;19.84;86.17
706;BME280;21234;48.690;9.016;2023-08-24T06:02:42;96172.28;;;19.90;88.48
706;BME280;21234;48.690;9.016;2023-08-24T06:05:09;96180.03;;;19.88;88.15
706;BME280;21234;48.690;9.016;2023-08-24T06:07:36;96176.78;;;19.86;88.25
706;BME280;21234;48.690;9.016;2023-08-24T06:10:04;96179.84;;;19.85;88.39
706;BME280;21234;48.690;9.016;2023-08-24T06:12:31;96170.25;;;19.82;88.58
706;BME280;21234;48.690;9.016;2023-08-24T06:14:58;96171.88;;;19.83;90.04
706;BME280;21234;48.690;9.016;2023-08-24T06:17:27;96172.06;;;19.87;89.61
706;BME280;21234;48.690;9.016;2023-08-24T06:19:55;96177.91;;;19.85;89.61
706;BME280;21234;48.690;9.016;2023-08-24T06:22:22;96180.50;;;19.82;90.44
706;BME280;21234;48.690;9.016;2023-08-24T06:24:49;96181.97;;;19.88;91.31
706;BME280;21234;48.690;9.016;2023-08-24T06:27:16;96179.22;;;19.88;92.65
706;BME280;21234;48.690;9.016;2023-08-24T06:29:43;96180.53;;;19.90;92.40
706;BME280;21234;48.690;9.016;2023-08-24T06:32:09;96183.81;;;19.92;92.44
706;BME280;21234;48.690;9.016;2023-08-24T06:34:36;96188.19;;;19.93;90.13
706;BME280;21234;48.690;9.016;2023-08-24T06:37:04;96187.69;;;19.91;90.75
706;BME280;21234;48.690;9.016;2023-08-24T06:39:31;96191.38;;;19.87;89.35
706;BME280;21234;48.690;9.016;2023-08-24T06:41:58;96200.06;;;19.94;90.77
706;BME280;21234;48.690;9.016;2023-08-24T06:44:25;96212.09;;;19.98;90.87
706;BME280;21234;48.690;9.016;2023-08-24T06:46:51;96219.75;;;20.01;89.10
706;BME280;21234;48.690;9.016;2023-08-24T06:49:18;96225.06;;;19.97;91.99
706;BME280;21234;48.690;9.016;2023-08-24T06:51:45;96238.75;;;20.02;89.72
706;BME280;21234;48.690;9.016;2023-08-24T06:54:13;96242.53;;;20.06;89.63
706;BME280;21234;48.690;9.016;2023-08-24T06:56:41;96251.63;;;20.07;89.32
706;BME280;21234;48.690;9.016;2023-08-24T06:59:08;96257.47;;;20.05;89.11
706;BME280;21234;48.690;9.016;2023-08-24T07:01:38;96260.63;;;20.12;88.65
706;BME280;21234;48.690;9.016;2023-08-24T07:04:06;96250.88;;;20.15;88.21
706;BME280;21234;48.690;9.016;2023-08-24T07:06:33;96236.75;;;20.17;87.28
706;BME280;21234;48.690;9.016;2023-08-24T07:09:00;96229.59;;;20.16;87.39
706;BME280;21234;48.690;9.016;2023-08-24T07:11:32;96227.00;;;20.10;85.90
706;BME280;21234;48.690;9.016;2023-08-24T07:13:58;96217.63;;;20.20;86.58
706;BME280;21234;48.690;9.016;2023-08-24T07:16:25;96215.97;;;20.33;87.00
706;BME280;21234;48.690;9.016;2023-08-24T07:18:52;96204.19;;;20.41;83.38
706;BME280;21234;48.690;9.016;2023-08-24T07:21:19;96201.03;;;20.78;81.04
706;BME280;21234;48.690;9.016;2023-08-24T07:23:45;96183.44;;;21.62;77.69
706;BME280;21234;48.690;9.016;2023-08-24T07:26:12;96185.78;;;22.21;75.36
706;BME280;21234;48.690;9.016;2023-08-24T07:28:40;96186.06;;;22.62;69.40
706;BME280;21234;48.690;9.016;2023-08-24T07:31:07;96189.75;;;23.01;68.96
706;BME280;21234;48.690;9.016;2023-08-24T07:33:36;96188.53;;;23.49;67.73
706;BME280;21234;48.690;9.016;2023-08-24T07:36:04;96178.72;;;23.81;64.60
706;BME280;21234;48.690;9.016;2023-08-24T07:38:31;96178.94;;;24.17;65.44
706;BME280;21234;48.690;9.016;2023-08-24T07:40:58;96184.63;;;24.41;64.29
706;BME280;21234;48.690;9.016;2023-08-24T07:43:24;96199.19;;;24.59;64.67
706;BME280;21234;48.690;9.016;2023-08-24T07:45:52;96188.38;;;24.91;65.41
706;BME280;21234;48.690;9.016;2023-08-24T07:48:20;96189.59;;;25.02;64.72
706;BME280;21234;48.690;9.016;2023-08-24T07:50:47;96186.72;;;25.35;63.42
706;BME280;21234;48.690;9.016;2023-08-24T07:53:17;96181.06;;;25.56;61.76
706;BME280;21234;48.690;9.016;2023-08-24T07:55:44;96185.25;;;25.74;62.11
706;BME280;21234;48.690;9.016;2023-08-24T07:58:11;96193.94;;;25.97;60.14
706;BME280;21234;48.690;9.016;2023-08-24T08:00:38;96199.09;;;26.10;57.49
706;BME280;21234;48.690;9.016;2023-08-24T08:03:06;96200.81;;;26.27;56.80
706;BME280;21234;48.690;9.016;2023-08-24T08:05:33;96199.72;;;26.44;56.65
706;BME280;21234;48.690;9.016;2023-08-24T08:08:00;96195.22;;;26.67;57.59
706;BME280;21234;48.690;9.016;2023-08-24T08:10:26;96199.69;;;26.84;56.04
706;BME280;21234;48.690;9.016;2023-08-24T08:12:53;96191.81;;;27.02;56.34
706;BME280;21234;48.690;9.016;2023-08-24T08:15:21;96194.88;;;27.13;54.58
706;BME280;21234;48.690;9.016;2023-08-24T08:17:48;96201.19;;;27.41;53.55
706;BME280;21234;48.690;9.016;2023-08-24T08:20:16;96199.22;;;27.41;54.05
706;BME280;21234;48.690;9.016;2023-08-24T08:22:43;96203.53;;;27.55;55.38
706;BME280;21234;48.690;9.016;2023-08-24T08:25:10;96201.03;;;27.65;53.47
706;BME280;21234;48.690;9.016;2023-08-24T08:27:37;96203.00;;;27.81;51.81
706;BME280;21234;48.690;9.016;2023-08-24T08:30:05;96193.09;;;27.67;52.45
706;BME280;21234;48.690;9.016;2023-08-24T08:32:32;96189.50;;;27.67;51.68
706;BME280;21234;48.690;9.016;2023-08-24T08:34:59;96190.47;;;27.74;50.39
706;BME280;21234;48.690;9.016;2023-08-24T08:37:27;96187.78;;;27.78;50.62
706;BME280;21234;48.690;9.016;2023-08-24T08:39:54;96186.13;;;27.93;51.04
706;BME280;21234;48.690;9.016;2023-08-24T08:42:21;96189.03;;;28.16;49.64
706;BME280;21234;48.690;9.016;2023-08-24T08:44:48;96192.19;;;28.14;49.52
706;BME280;21234;48.690;9.016;2023-08-24T08:47:17;96189.84;;;28.16;50.29
706;BME280;21234;48.690;9.016;2023-08-24T08:49:45;96187.06;;;28.16;51.52
706;BME280;21234;48.690;9.016;2023-08-24T08:52:14;96192.75;;;28.39;50.98
706;BME280;21234;48.690;9.016;2023-08-24T08:54:42;96193.94;;;28.38;48.91
706;BME280;21234;48.690;9.016;2023-08-24T08:57:10;96187.09;;;28.35;49.71
706;BME280;21234;48.690;9.016;2023-08-24T08:59:37;96189.59;;;28.40;49.41
706;BME280;21234;48.690;9.016;2023-08-24T09:02:04;96182.59;;;28.31;50.03
706;BME280;21234;48.690;9.016;2023-08-24T09:04:33;96182.19;;;28.48;49.11
706;BME280;21234;48.690;9.016;2023-08-24T09:07:00;96172.81;;;28.79;49.50
706;BME280;21234;48.690;9.016;2023-08-24T09:09:30;96182.16;;;28.67;47.97
706;BME280;21234;48.690;9.016;2023-08-24T09:11:59;96173.69;;;28.64;49.29
706;BME280;21234;48.690;9.016;2023-08-24T09:14:25;96167.00;;;28.68;49.23
706;BME280;21234;48.690;9.016;2023-08-24T09:16:52;96165.84;;;28.50;49.08
706;BME280;21234;48.690;9.016;2023-08-24T09:19:19;96161.06;;;28.51;48.55
706;BME280;21234;48.690;9.016;2023-08-24T09:21:56;96149.94;;;28.35;49.33
706;BME280;21234;48.690;9.016;2023-08-24T09:24:29;96151.28;;;28.22;49.74
706;BME280;21234;48.690;9.016;2023-08-24T09:26:57;96138.31;;;28.52;50.39
706;BME280;21234;48.690;9.016;2023-08-24T09:29:24;96135.28;;;28.61;49.20
706;BME280;21234;48.690;9.016;2023-08-24T09:31:51;96138.88;;;28.61;49.91
706;BME280;21234;48.690;9.016;2023-08-24T09:34:19;96137.66;;;28.59;49.70
706;BME280;21234;48.690;9.016;2023-08-24T09:36:46;96136.47;;;28.60;49.21
706;BME280;21234;48.690;9.016;2023-08-24T09:39:16;96128.97;;;28.83;50.45
706;BME280;21234;48.690;9.016;2023-08-24T09:41:46;96121.00;;;29.08;48.95
706;BME280;21234;48.690;9.016;2023-08-24T09:44:14;96124.00;;;29.19;49.74
706;BME280;21234;48.690;9.016;2023-08-24T09:46:42;96105.00;;;29.31;47.77
706;BME280;21234;48.690;9.016;2023-08-24T09:49:10;96109.53;;;29.39;48.10
706;BME280;21234;48.690;9.016;2023-08-24T09:51:38;96098.81;;;29.41;48.18
706;BME280;21234;48.690;9.016;2023-08-24T09:54:06;96103.28;;;29.46;49.48
706;BME280;21234;48.690;9.016;2023-08-24T09:56:35;96081.31;;;29.48;48.22
706;BME280;21234;48.690;9.016;2023-08-24T09:59:10;96080.16;;;29.79;50.88
706;BME280;21234;48.690;9.016;2023-08-24T10:01:39;96073.88;;;29.89;48.22
706;BME280;21234;48.690;9.016;2023-08-24T10:04:08;96069.88;;;29.87;47.36
706;BME280;21234;48.690;9.016;2023-08-24T10:06:36;96067.94;;;29.94;47.99
706;BME280;21234;48.690;9.016;2023-08-24T10:09:06;96064.31;;;29.64;46.58
706;BME280;21234;48.690;9.016;2023-08-24T10:11:35;96054.56;;;29.81;48.86
706;BME280;21234;48.690;9.016;2023-08-24T10:14:08;96047.31;;;30.06;47.95
706;BME280;21234;48.690;9.016;2023-08-24T10:16:39;96043.28;;;30.03;46.63
706;BME280;21234;48.690;9.016;2023-08-24T10:19:07;96042.09;;;30.04;48.75
706;BME280;21234;48.690;9.016;2023-08-24T10:21:36;96035.09;;;30.25;48.00
706;BME280;21234;48.690;9.016;2023-08-24T10:24:05;96034.22;;;30.51;47.39
706;BME280;21234;48.690;9.016;2023-08-24T10:26:32;96037.25;;;30.35;47.07
706;BME280;21234;48.690;9.016;2023-08-24T10:29:00;96028.97;;;29.82;47.43
706;BME280;21234;48.690;9.016;2023-08-24T10:31:28;96038.13;;;29.49;47.98
706;BME280;21234;48.690;9.016;2023-08-24T10:33:58;96041.16;;;29.14;48.90
706;BME280;21234;48.690;9.016;2023-08-24T10:36:26;96023.38;;;29.29;49.75
706;BME280;21234;48.690;9.016;2023-08-24T10:38:56;96033.88;;;29.36;49.29
706;BME280;21234;48.690;9.016;2023-08-24T10:41:26;96026.28;;;29.63;50.28
706;BME280;21234;48.690;9.016;2023-08-24T10:44:04;96023.91;;;29.95;47.54
706;BME280;21234;48.690;9.016;2023-08-24T10:46:34;96018.88;;;30.04;48.99
706;BME280;21234;48.690;9.016;2023-08-24T10:49:03;96023.94;;;29.65;48.70
706;BME280;21234;48.690;9.016;2023-08-24T10:51:30;96014.00;;;29.71;49.12
706;BME280;21234;48.690;9.016;2023-08-24T10:53:58;96007.31;;;29.79;48.79
706;BME280;21234;48.690;9.016;2023-08-24T10:56:30;96018.56;;;29.83;48.65
706;BME280;21234;48.690;9.016;2023-08-24T10:59:10;96012.88;;;30.05;48.38
706;BME280;21234;48.690;9.016;2023-08-24T11:01:39;96004.41;;;30.02;48.56
706;BME280;21234;48.690;9.016;2023-08-24T11:04:07;95997.25;;;30.04;48.25
706;BME280;21234;48.690;9.016;2023-08-24T11:06:50;95993.69;;;30.07;48.45
706;BME280;21234;48.690;9.016;2023-08-24T11:09:17;95988.31;;;30.29;50.67
706;BME280;21234;48.690;9.016;2023-08-24T11:11:55;95981.72;;;30.51;48.70
706;BME280;21234;48.690;9.016;2023-08-24T11:14:24;95983.03;;;30.61;48.14
706;BME280;21234;48.690;9.016;2023-08-24T11:16:52;95987.53;;;30.69;47.80
706;BME280;21234;48.690;9.016;2023-08-24T11:19:21;95979.94;;;30.73;47.22
706;BME280;21234;48.690;9.016;2023-08-24T11:21:48;95971.53;;;30.73;49.44
706;BME280;21234;48.690;9.016;2023-08-24T11:24:16;95974.13;;;30.96;47.72
706;BME280;21234;48.690;9.016;2023-08-24T11:26:44;95970.94;;;31.01;47.03
706;BME280;21234;48.690;9.016;2023-08-24T11:29:11;95956.59;;;31.10;46.90
706;BME280;21234;48.690;9.016;2023-08-24T11:31:38;95958.56;;;31.05;46.17
706;BME280;21234;48.690;9.016;2023-08-24T11:34:05;95956.16;;;31.07;46.24
706;BME280;21234;48.690;9.016;2023-08-24T11:36:43;95952.06;;;30.94;46.73
706;BME280;21234;48.690;9.016;2023-08-24T11:39:15;95955.03;;;31.12;46.50
706;BME280;21234;48.690;9.016;2023-08-24T11:41:42;95959.19;;;31.36;47.56
706;BME280;21234;48.690;9.016;2023-08-24T11:44:10;95956.44;;;31.43;46.52
706;BME280;21234;48.690;9.016;2023-08-24T11:46:37;95951.91;;;31.28;45.80
706;BME280;21234;48.690;9.016;2023-08-24T11:49:04;95950.72;;;31.29;46.90
706;BME280;21234;48.690;9.016;2023-08-24T11:51:31;95954.25;;;31.15;45.60
706;BME280;21234;48.690;9.016;2023-08-24T11:54:01;95941.25;;;30.96;47.12
706;BME280;21234;48.690;9.016;2023-08-24T11:56:28;95946.16;;;31.10;47.23
706;BME280;21234;48.690;9.016;2023-08-24T11:58:54;95950.94;;;31.06;46.66
706;BME280;21234;48.690;9.016;2023-08-24T12:01:21;95942.06;;;31.00;46.86
706;BME280;21234;48.690;9.016;2023-08-24T12:03:48;95938.06;;;31.01;47.18
706;BME280;21234;48.690;9.016;2023-08-24T12:06:16;95936.78;;;30.92;46.39
706;BME280;21234;48.690;9.016;2023-08-24T12:08:45;95937.25;;;30.97;47.03
706;BME280;21234;48.690;9.016;2023-08-24T12:11:15;95939.84;;;30.69;47.41
706;BME280;21234;48.690;9.016;2023-08-24T12:13:46;95935.34;;;30.61;47.96
706;BME280;21234;48.690;9.016;2023-08-24T12:16:15;95931.06;;;30.74;47.13
706;BME280;21234;48.690;9.016;2023-08-24T12:18:53;95921.53;;;30.89;46.86
706;BME280;21234;48.690;9.016;2023-08-24T12:21:20;95913.34;;;31.14;47.02
706;BME280;21234;48.690;9.016;2023-08-24T12:24:00;95903.44;;;31.42;46.22
706;BME280;21234;48.690;9.016;2023-08-24T12:26:30;95896.63;;;31.43;45.60
706;BME280;21234;48.690;9.016;2023-08-24T12:29:00;95887.44;;;31.53;45.94
706;BME280;21234;48.690;9.016;2023-08-24T12:31:28;95891.44;;;31.52;45.85
706;BME280;21234;48.690;9.016;2023-08-24T12:33:59;95878.31;;;31.73;47.15
706;BME280;21234;48.690;9.016;2023-08-24T12:36:27;95874.38;;;32.03;43.76
706;BME280;21234;48.690;9.016;2023-08-24T12:38:53;95869.94;;;31.98;44.24
706;BME280;21234;48.690;9.016;2023-08-24T12:41:20;95861.53;;;32.09;44.79
706;BME280;21234;48.690;9.016;2023-08-24T12:43:48;95852.69;;;31.96;43.72
706;BME280;21234;48.690;9.016;2023-08-24T12:46:15;95858.31;;;32.07;45.54
706;BME280;21234;48.690;9.016;2023-08-24T12:48:41;95840.69;;;32.31;44.75
706;BME280;21234;48.690;9.016;2023-08-24T12:51:08;95843.09;;;32.29;43.62
706;BME280;21234;48.690;9.016;2023-08-24T12:53:35;95844.31;;;32.25;42.97
706;BME280;21234;48.690;9.016;2023-08-24T12:56:02;95855.94;;;32.13;42.80
706;BME280;21234;48.690;9.016;2023-08-24T12:58:29;95839.88;;;32.13;43.10
706;BME280;21234;48.690;9.016;2023-08-24T13:00:57;95843.50;;;32.38;43.37
706;BME280;21234;48.690;9.016;2023-08-24T13:03:24;95834.69;;;32.76;42.01
706;BME280;21234;48.690;9.016;2023-08-24T13:05:51;95827.78;;;32.94;42.46
706;BME280;21234;48.690;9.016;2023-08-24T13:08:18;95824.16;;;33.08;41.33
706;BME280;21234;48.690;9.016;2023-08-24T13:10:45;95825.28;;;33.25;40.85
706;BME280;21234;48.690;9.016;2023-08-24T13:13:12;95829.28;;;33.45;40.88
706;BME280;21234;48.690;9.016;2023-08-24T13:15:38;95830.50;;;33.37;39.66
706;BME280;21234;48.690;9.016;2023-08-24T13:18:07;95832.53;;;33.36;38.84
706;BME280;21234;48.690;9.016;2023-08-24T13:20:33;95828.91;;;33.18;39.46
706;BME280;21234;48.690;9.016;2023-08-24T13:23:00;95820.53;;;33.11;39.92
706;BME280;21234;48.690;9.016;2023-08-24T13:25:27;95815.75;;;32.83;39.85